This is the latest recevied weather packets stored in our database for station/object K4PAR-1. If no packets are shown the sender has not sent any weather packets the latest 10 day(s).
| Time | Temp. | Humidity | Pressure | Rain* | Wind** | Luminosity | Snow |
|---|---|---|---|---|---|---|---|
| 1778104785 | 28.33° C | - | - | 0 mm | 0 m/s | - | - |
| 1778104543 | 28.33° C | - | - | 0 mm | 0 m/s | - | - |
| 1778104300 | 28.89° C | - | - | 0 mm | 0 m/s | - | - |
| 1778104058 | 28.89° C | - | - | 0 mm | 0.45 m/s, 38° | - | - |
| 1778103815 | 28.33° C | - | - | 0 mm | 2.24 m/s, 46° | - | - |
| 1778103573 | 29.44° C | - | - | 0 mm | 1.34 m/s, 62° | - | - |
| 1778103330 | 28.89° C | - | - | 0 mm | 0.45 m/s, 35° | - | - |
| 1778103088 | 29.44° C | - | - | 0 mm | 0 m/s | - | - |
| 1778102845 | 28.89° C | - | - | 0 mm | 1.34 m/s, 28° | - | - |
| 1778102603 | 28.89° C | - | - | 0 mm | 0 m/s | - | - |
| 1778102360 | 29.44° C | - | - | 0 mm | 1.34 m/s, 56° | - | - |
| 1778102118 | 30° C | - | - | 0 mm | 0.45 m/s, 65° | - | - |
| 1778101875 | 29.44° C | - | - | 0 mm | 0 m/s | - | - |
| 1778101633 | 29.44° C | - | - | 0 mm | 0 m/s | - | - |
| 1778101390 | 29.44° C | - | - | 0 mm | 0.89 m/s, 44° | - | - |
| 1778101148 | 29.44° C | - | - | 0 mm | 0 m/s | - | - |
| 1778100906 | 30° C | - | - | 0 mm | 0 m/s | - | - |
| 1778100663 | 29.44° C | - | - | 0 mm | 0.45 m/s, 51° | - | - |
| 1778100421 | 30° C | - | - | 0 mm | 0.89 m/s, 60° | - | - |
| 1778100178 | 30° C | - | - | 0 mm | 1.79 m/s, 58° | - | - |
| 1778099936 | 29.44° C | - | - | 0 mm | 1.79 m/s, 70° | - | - |
| 1778099693 | 30° C | - | - | 0 mm | 0 m/s | - | - |
| 1778099451 | 29.44° C | - | - | 0 mm | 0.89 m/s, 51° | - | - |
| 1778099208 | 29.44° C | - | - | 0 mm | 2.24 m/s, 38° | - | - |
| 1778098966 | 29.44° C | - | - | 0 mm | 2.68 m/s, 66° | - | - |
* Rain latest hour (hover to see other rain measurements)
** Current wind speed in m/s (hover to see current wind gust speed)